Time;durP1;ratioP1;P1;durP2;ratioP2;P2;SDS_P1;SDS_P2;PMS_P1;PMS_P2;Temp;Humidity;BMP_temperature;BMP_pressure;BME280_temperature;BME280_humidity;BME280_pressure;Samples;Min_cycle;Max_cycle;Signal;HPM_P1;HPM_P2
2021/07/14 00:00:19;;;;;;;8.20;5.30;;;;;;;19.48;100.00;99985.56;4967303;28;20225;-71
2021/07/14 00:02:46;;;;;;;9.43;6.33;;;;;;;19.47;100.00;99985.69;4961685;28;20616;-71
2021/07/14 00:05:15;;;;;;;14.10;6.27;;;;;;;19.41;100.00;99980.88;4965151;28;20601;-72
2021/07/14 00:07:42;;;;;;;9.47;5.93;;;;;;;19.35;100.00;99984.81;4964874;28;20245;-72
2021/07/14 00:10:13;;;;;;;9.30;5.87;;;;;;;19.34;100.00;99992.84;4959806;28;20254;-71
2021/07/14 00:12:47;;;;;;;8.30;5.87;;;;;;;19.34;100.00;100006.06;4965401;28;21792;-71
2021/07/14 00:23:21;;;;;;;8.30;5.80;;;;;;;19.17;100.00;100005.50;4960955;28;20202;-72
2021/07/14 00:25:49;;;;;;;11.43;6.20;;;;;;;19.15;100.00;100001.25;4966618;28;20843;-72
2021/07/14 00:28:17;;;;;;;7.13;5.90;;;;;;;19.10;100.00;99996.28;4958462;28;20254;-72
2021/07/14 00:30:49;;;;;;;10.53;5.70;;;;;;;19.09;100.00;99995.44;4963010;28;20243;-72
2021/07/14 00:33:16;;;;;;;10.27;6.17;;;;;;;19.07;100.00;99991.25;4962760;28;20258;-71
2021/07/14 00:35:43;;;;;;;9.00;6.40;;;;;;;19.07;100.00;99991.25;4960592;28;20300;-72
2021/07/14 00:38:11;;;;;;;10.50;6.10;;;;;;;19.06;100.00;99993.03;4964278;28;20272;-72
2021/07/14 00:40:37;;;;;;;10.33;6.20;;;;;;;19.04;100.00;99983.53;4963614;28;20198;-72
2021/07/14 00:43:05;;;;;;;7.23;6.00;;;;;;;19.01;100.00;99992.50;4960948;28;20206;-71
2021/07/14 00:45:31;;;;;;;9.50;6.53;;;;;;;18.97;100.00;99993.69;4955314;28;20201;-72
2021/07/14 00:48:00;;;;;;;10.20;6.17;;;;;;;18.95;100.00;100000.03;4961212;28;20250;-71
2021/07/14 00:50:27;;;;;;;12.30;7.00;;;;;;;18.91;100.00;99994.13;4957856;28;20211;-72
2021/07/14 00:52:53;;;;;;;10.07;6.83;;;;;;;18.88;100.00;100000.47;4959265;28;20213;-72
2021/07/14 00:55:20;;;;;;;10.83;6.90;;;;;;;18.89;100.00;100011.88;4964527;28;20679;-72
2021/07/14 00:57:47;;;;;;;11.33;7.23;;;;;;;18.88;100.00;100007.56;4961997;28;20711;-71
2021/07/14 01:00:15;;;;;;;9.67;6.40;;;;;;;18.88;100.00;100002.28;4963780;28;20202;-71
2021/07/14 01:02:41;;;;;;;12.30;7.30;;;;;;;18.87;100.00;99997.94;4962312;28;20677;-72
2021/07/14 01:05:13;;;;;;;12.17;7.80;;;;;;;18.86;100.00;99999.75;4960636;28;20687;-72
2021/07/14 01:07:46;;;;;;;9.70;6.80;;;;;;;18.85;100.00;99998.03;4963342;28;20242;-72
2021/07/14 01:10:17;;;;;;;10.20;6.80;;;;;;;18.82;100.00;100005.34;4953976;28;20217;-72
2021/07/14 01:12:52;;;;;;;9.90;7.27;;;;;;;18.80;100.00;100001.94;4962533;28;20910;-72
2021/07/14 01:15:22;;;;;;;11.03;7.27;;;;;;;18.80;100.00;100004.56;4957573;28;20201;-72
2021/07/14 01:17:52;;;;;;;12.43;6.97;;;;;;;18.81;100.00;100014.19;4964655;28;20629;-72
2021/07/14 01:20:37;;;;;;;13.23;7.10;;;;;;;18.79;100.00;100016.09;4966172;28;20269;-72
2021/07/14 01:23:10;;;;;;;8.97;6.90;;;;;;;18.79;100.00;100010.81;4961353;28;20206;-72
2021/07/14 01:25:57;;;;;;;10.37;6.37;;;;;;;18.76;100.00;100017.13;4962412;28;20241;-72
2021/07/14 01:28:28;;;;;;;9.03;6.53;;;;;;;18.73;100.00;100014.72;4958593;28;20217;-72
2021/07/14 01:30:56;;;;;;;11.40;6.67;;;;;;;18.69;100.00;100011.44;4962230;28;20645;-72
2021/07/14 01:33:25;;;;;;;8.20;6.30;;;;;;;18.66;100.00;100000.25;4960972;28;20206;-72
2021/07/14 01:35:55;;;;;;;9.70;5.83;;;;;;;18.64;100.00;100008.28;4960228;28;20230;-72
2021/07/14 01:38:24;;;;;;;10.63;5.67;;;;;;;18.64;100.00;100007.44;4961287;28;20214;-72
2021/07/14 01:40:54;;;;;;;10.50;5.83;;;;;;;18.62;100.00;100010.19;4961251;28;20206;-72
2021/07/14 01:43:21;;;;;;;11.83;5.87;;;;;;;18.60;100.00;100004.16;4963356;28;20206;-72
2021/07/14 01:45:53;;;;;;;9.13;5.70;;;;;;;18.58;100.00;99994.69;4966261;28;20236;-72
2021/07/14 01:48:22;;;;;;;12.10;5.57;;;;;;;18.53;100.00;99998.47;4962627;28;20222;-72
2021/07/14 01:50:50;;;;;;;10.30;5.60;;;;;;;18.49;100.00;99996.16;4975211;28;20234;-72
2021/07/14 01:53:19;;;;;;;8.07;5.83;;;;;;;18.48;100.00;99994.47;4961036;28;20209;-72
2021/07/14 01:55:48;;;;;;;13.20;6.03;;;;;;;18.48;100.00;99999.75;4958177;28;20924;-72
2021/07/14 01:58:16;;;;;;;8.27;5.33;;;;;;;18.43;100.00;99996.56;4961485;28;20209;-72
2021/07/14 02:00:44;;;;;;;6.87;5.17;;;;;;;18.42;100.00;100001.00;4958849;28;20197;-72
2021/07/14 02:03:28;;;;;;;13.23;5.53;;;;;;;18.40;100.00;99999.41;4960069;28;20212;-72
2021/07/14 02:05:58;;;;;;;10.60;5.27;;;;;;;18.36;100.00;100001.41;4958199;28;20237;-72
2021/07/14 02:08:24;;;;;;;12.20;5.37;;;;;;;18.35;100.00;99994.47;4961618;28;20261;-72
2021/07/14 02:10:51;;;;;;;9.37;5.53;;;;;;;18.34;100.00;99987.50;4964109;28;20214;-72
2021/07/14 02:13:20;;;;;;;6.73;5.23;;;;;;;18.31;100.00;99987.69;4962639;28;20190;-72
2021/07/14 02:15:52;;;;;;;13.93;5.57;;;;;;;18.29;100.00;99998.38;4963358;28;20332;-72
2021/07/14 02:18:24;;;;;;;10.63;5.93;;;;;;;18.27;100.00;99997.63;4960116;28;20210;-72
2021/07/14 02:20:51;;;;;;;9.57;5.47;;;;;;;18.26;100.00;99995.09;4963256;28;20209;-72
2021/07/14 02:23:18;;;;;;;7.23;5.47;;;;;;;18.27;100.00;99994.97;4955195;28;20616;-72
2021/07/14 02:25:45;;;;;;;9.37;4.67;;;;;;;18.25;100.00;99996.88;4960861;28;20301;-72
2021/07/14 02:28:11;;;;;;;8.97;5.10;;;;;;;18.24;100.00;99987.28;4956594;28;20198;-72
2021/07/14 02:30:37;;;;;;;8.10;5.27;;;;;;;18.22;100.00;99983.06;4964746;28;20437;-72
2021/07/14 02:33:05;;;;;;;11.00;5.10;;;;;;;18.19;100.00;99988.53;4961438;28;20547;-72
2021/07/14 02:35:35;;;;;;;10.00;5.50;;;;;;;18.15;100.00;99993.16;4963603;28;20205;-72
2021/07/14 02:38:07;;;;;;;12.90;4.90;;;;;;;18.16;100.00;99994.88;4958247;28;20657;-72
2021/07/14 02:40:39;;;;;;;9.23;5.23;;;;;;;18.16;100.00;100000.16;4963226;28;20201;-72
2021/07/14 02:43:06;;;;;;;8.80;4.87;;;;;;;18.13;100.00;100003.84;4957083;28;20214;-72
2021/07/14 02:45:37;;;;;;;7.33;5.47;;;;;;;18.10;100.00;100009.31;4958540;28;20636;-72
2021/07/14 02:48:05;;;;;;;9.10;5.60;;;;;;;18.09;100.00;100004.16;4965514;28;20206;-72
2021/07/14 02:50:34;;;;;;;9.87;5.30;;;;;;;18.06;100.00;99999.06;4965347;28;20233;-71
2021/07/14 02:53:06;;;;;;;9.93;5.23;;;;;;;18.05;100.00;100000.03;4969484;28;20238;-72
2021/07/14 02:55:36;;;;;;;12.30;5.67;;;;;;;18.05;100.00;100007.94;4961395;28;20225;-72
2021/07/14 02:58:03;;;;;;;8.57;5.30;;;;;;;18.05;100.00;100018.50;4963640;28;20672;-72
2021/07/14 03:00:31;;;;;;;13.53;5.60;;;;;;;18.01;100.00;100022.28;4961683;28;20583;-72
2021/07/14 03:02:58;;;;;;;7.73;4.90;;;;;;;18.00;100.00;100021.44;4963359;28;20212;-72
2021/07/14 03:05:27;;;;;;;11.03;5.60;;;;;;;18.00;100.00;100020.59;4965794;28;20206;-72
2021/07/14 03:07:57;;;;;;;13.63;5.93;;;;;;;17.97;100.00;100030.38;4966743;28;20202;-72
2021/07/14 03:10:24;;;;;;;10.40;6.13;;;;;;;17.96;100.00;100014.69;4966155;28;20213;-72
2021/07/14 03:12:54;;;;;;;11.70;5.93;;;;;;;17.96;100.00;100015.53;4960024;28;20217;-72
2021/07/14 03:15:22;;;;;;;14.23;5.80;;;;;;;17.93;100.00;100006.97;4963613;28;20218;-72
2021/07/14 03:17:50;;;;;;;10.67;5.87;;;;;;;17.93;100.00;100001.69;4966313;28;20737;-72
2021/07/14 03:20:17;;;;;;;11.07;5.60;;;;;;;17.93;100.00;100007.81;4964328;28;20202;-72
2021/07/14 03:22:46;;;;;;;8.63;5.37;;;;;;;17.93;100.00;100014.88;4958547;28;20206;-72
2021/07/14 03:25:16;;;;;;;9.73;5.67;;;;;;;17.96;100.00;100014.69;4966941;28;20287;-72
2021/07/14 03:27:45;;;;;;;10.30;5.60;;;;;;;17.93;100.00;100020.16;4958148;28;20246;-72
2021/07/14 03:30:13;;;;;;;8.43;5.50;;;;;;;17.91;100.00;100016.78;4964397;28;20561;-72
2021/07/14 03:32:40;;;;;;;12.33;5.53;;;;;;;17.90;100.00;100023.00;4962175;28;20221;-72
2021/07/14 03:35:07;;;;;;;10.80;6.17;;;;;;;17.91;100.00;100017.63;4974188;28;20582;-72
2021/07/14 03:37:35;;;;;;;8.27;5.80;;;;;;;17.91;100.00;100014.97;4962344;28;20224;-72
2021/07/14 03:40:04;;;;;;;11.97;5.70;;;;;;;17.88;100.00;99999.34;4964751;28;20532;-72
2021/07/14 03:42:33;;;;;;;10.93;5.97;;;;;;;17.86;100.00;99989.88;4962256;28;20205;-72
2021/07/14 03:45:01;;;;;;;12.83;6.30;;;;;;;17.89;100.00;99993.16;4958758;28;20213;-72
2021/07/14 03:47:28;;;;;;;8.00;5.43;;;;;;;17.93;100.00;99996.44;4965229;28;20721;-72
2021/07/14 03:49:56;;;;;;;11.07;5.23;;;;;;;17.96;100.00;100004.97;4957206;28;20206;-72
2021/07/14 03:52:24;;;;;;;8.87;5.93;;;;;;;18.02;100.00;100014.25;4968823;28;20202;-72
2021/07/14 03:54:51;;;;;;;9.23;6.00;;;;;;;18.06;100.00;100022.81;4968252;28;20213;-72
2021/07/14 03:57:18;;;;;;;9.60;5.57;;;;;;;18.08;100.00;100029.69;4962694;28;20218;-72
2021/07/14 03:59:46;;;;;;;9.10;5.80;;;;;;;18.08;100.00;100032.34;4961133;28;20217;-72
2021/07/14 04:02:14;;;;;;;13.27;6.17;;;;;;;18.11;100.00;100033.91;4962300;28;20209;-72
2021/07/14 04:04:45;;;;;;;8.67;5.97;;;;;;;18.13;100.00;100035.50;4967634;28;20206;-72
2021/07/14 04:07:15;;;;;;;10.03;5.60;;;;;;;18.17;100.00;100036.16;4959164;28;20229;-72
2021/07/14 04:09:44;;;;;;;9.43;5.70;;;;;;;18.21;100.00;100034.16;4963396;28;20222;-72
2021/07/14 04:12:11;;;;;;;11.77;6.63;;;;;;;18.23;100.00;100030.44;4965942;28;20210;-72
2021/07/14 04:14:37;;;;;;;11.07;6.13;;;;;;;18.25;100.00;100028.53;4964461;28;20214;-72
2021/07/14 04:17:05;;;;;;;12.40;6.53;;;;;;;18.30;100.00;100021.16;4965293;28;20227;-72
2021/07/14 04:19:32;;;;;;;8.60;5.97;;;;;;;18.37;100.00;100020.75;4963538;28;20678;-72
2021/07/14 04:21:59;;;;;;;11.30;5.97;;;;;;;18.39;100.00;100009.13;4956889;28;20205;-72
2021/07/14 04:24:25;;;;;;;14.10;5.87;;;;;;;18.47;100.00;100006.81;4964584;28;20197;-72
2021/07/14 04:26:52;;;;;;;8.70;6.00;;;;;;;18.58;100.00;99999.97;4963323;28;20672;-72
2021/07/14 04:29:18;;;;;;;7.70;6.23;;;;;;;18.65;100.00;99994.13;4960444;28;20206;-72
2021/07/14 04:31:45;;;;;;;10.30;5.90;;;;;;;18.72;100.00;100000.66;4956193;28;20229;-72
2021/07/14 04:34:13;;;;;;;9.43;6.13;;;;;;;18.76;100.00;100000.47;4965126;28;20213;-72
2021/07/14 04:36:41;;;;;;;10.93;6.33;;;;;;;18.81;100.00;100003.63;4960811;28;20242;-72
2021/07/14 04:39:08;;;;;;;8.77;5.73;;;;;;;18.87;100.00;100000.56;4961455;28;20559;-72
2021/07/14 04:41:35;;;;;;;8.90;5.67;;;;;;;18.90;100.00;100003.00;4965104;28;20216;-72
2021/07/14 04:44:03;;;;;;;9.47;5.60;;;;;;;18.84;100.00;100019.28;4954549;28;21508;-72
2021/07/14 04:46:30;;;;;;;6.70;5.47;;;;;;;18.90;100.00;100022.31;4963173;28;20222;-72
2021/07/14 04:48:56;;;;;;;10.20;5.73;;;;;;;18.94;100.00;100024.75;4956954;28;20207;-72
2021/07/14 04:51:24;;;;;;;8.90;5.40;;;;;;;18.99;100.00;100035.84;4961492;28;20214;-72
2021/07/14 04:53:50;;;;;;;9.57;5.93;;;;;;;19.03;100.00;100032.91;4956561;28;20216;-72
2021/07/14 04:56:17;;;;;;;7.03;6.00;;;;;;;19.07;100.00;100025.59;4965800;28;20229;-72
2021/07/14 04:58:44;;;;;;;7.00;5.37;;;;;;;19.20;100.00;100026.38;4972027;28;20218;-72
2021/07/14 05:01:13;;;;;;;10.30;5.87;;;;;;;19.30;100.00;100024.78;4961100;28;20683;-72
2021/07/14 05:03:39;;;;;;;10.23;5.93;;;;;;;19.40;100.00;100018.81;4956235;28;20209;-72
2021/07/14 05:06:05;;;;;;;8.20;5.30;;;;;;;19.47;100.00;100025.34;4968434;28;20234;-72
2021/07/14 05:08:33;;;;;;;8.23;5.03;;;;;;;19.48;100.00;100035.81;4958971;28;20205;-72
2021/07/14 05:10:59;;;;;;;7.30;5.33;;;;;;;19.51;100.00;100047.97;4969339;28;20220;-72
2021/07/14 05:13:26;;;;;;;6.10;4.90;;;;;;;19.51;100.00;100041.81;4963560;28;20217;-72
2021/07/14 05:15:52;;;;;;;9.37;5.40;;;;;;;19.53;100.00;100042.59;4966303;28;20233;-72
2021/07/14 05:18:18;;;;;;;7.17;5.40;;;;;;;19.62;100.00;100047.19;4961892;28;20210;-72
2021/07/14 05:20:45;;;;;;;8.73;5.57;;;;;;;19.63;100.00;100056.78;4961614;28;20231;-72
2021/07/14 05:23:11;;;;;;;6.40;5.07;;;;;;;19.81;100.00;100066.06;4958328;28;20210;-72
2021/07/14 05:25:39;;;;;;;6.17;4.97;;;;;;;19.85;100.00;100067.53;4961757;28;20202;-73
2021/07/14 05:28:06;;;;;;;6.60;5.33;;;;;;;19.95;100.00;100073.00;4964769;28;20201;-72
2021/07/14 05:30:33;;;;;;;7.07;4.80;;;;;;;19.93;100.00;100093.44;4961938;28;20206;-72
2021/07/14 05:32:59;;;;;;;7.40;4.60;;;;;;;19.82;100.00;100104.81;4959469;28;20680;-72
2021/07/14 05:35:25;;;;;;;7.30;4.50;;;;;;;19.82;100.00;100104.81;4961329;28;20209;-72
2021/07/14 05:37:52;;;;;;;5.27;4.33;;;;;;;19.86;100.00;100094.84;4960342;28;21426;-72
2021/07/14 05:40:18;;;;;;;5.13;4.37;;;;;;;19.85;100.00;100112.47;4954983;28;20513;-72
2021/07/14 05:42:46;;;;;;;5.33;4.53;;;;;;;19.75;100.00;100115.91;4962085;28;20204;-72
2021/07/14 05:45:13;;;;;;;5.07;4.30;;;;;;;19.76;100.00;100107.88;4955107;28;20522;-72
2021/07/14 05:47:39;;;;;;;4.93;4.37;;;;;;;19.90;100.00;100103.38;4957365;28;20240;-72
2021/07/14 05:50:07;;;;;;;5.20;4.67;;;;;;;19.91;100.00;100113.00;4953883;28;20209;-72
2021/07/14 05:52:33;;;;;;;4.47;4.07;;;;;;;19.73;100.00;100138.97;4958661;28;20276;-72
2021/07/14 05:55:00;;;;;;;4.93;4.37;;;;;;;19.64;100.00;100137.81;4960548;28;20220;-72
2021/07/14 05:57:26;;;;;;;4.83;4.33;;;;;;;19.58;100.00;100135.63;4959877;28;20233;-72
2021/07/14 05:59:54;;;;;;;5.80;4.40;;;;;;;19.54;100.00;100142.06;4958032;28;20217;-72
2021/07/14 06:02:20;;;;;;;6.27;4.67;;;;;;;19.55;100.00;100144.59;4961721;28;20207;-72
2021/07/14 06:04:47;;;;;;;5.83;4.47;;;;;;;19.53;100.00;100153.63;4962218;28;20597;-72
2021/07/14 06:07:13;;;;;;;6.60;4.47;;;;;;;19.47;100.00;100149.59;4955876;28;20233;-72
2021/07/14 06:09:40;;;;;;;5.80;5.13;;;;;;;19.51;100.00;100150.22;4959882;28;20206;-72
2021/07/14 06:12:07;;;;;;;5.53;4.97;;;;;;;19.70;100.00;100157.69;4957398;28;20259;-72
2021/07/14 06:14:34;;;;;;;5.10;4.60;;;;;;;19.79;100.00;100160.56;4961488;28;20202;-72
2021/07/14 06:17:01;;;;;;;6.20;4.60;;;;;;;20.01;100.00;100162.47;4961881;28;20225;-72
2021/07/14 06:19:28;;;;;;;4.40;3.70;;;;;;;20.09;100.00;100161.94;4956937;28;20210;-72
2021/07/14 06:21:55;;;;;;;4.50;4.10;;;;;;;20.20;100.00;100166.44;4957403;28;20198;-72
2021/07/14 06:24:21;;;;;;;4.30;3.90;;;;;;;20.18;100.00;100163.06;4962191;28;20215;-72
2021/07/14 06:26:50;;;;;;;6.63;3.73;;;;;;;20.21;100.00;100160.16;4960981;28;20906;-72
2021/07/14 06:29:16;;;;;;;4.20;3.67;;;;;;;20.34;100.00;100160.97;4961625;28;20301;-72
2021/07/14 06:31:45;;;;;;;4.60;3.53;;;;;;;20.49;100.00;100143.09;4961960;28;20226;-72
2021/07/14 06:34:14;;;;;;;4.87;3.63;;;;;;;20.57;100.00;100135.41;4968282;28;20293;-72
2021/07/14 06:36:40;;;;;;;5.17;3.17;;;;;;;20.73;100.00;100145.69;4965953;28;20222;-72
2021/07/14 06:39:07;;;;;;;4.03;3.50;;;;;;;20.87;100.00;100149.94;4965102;28;20210;-72
2021/07/14 06:41:33;;;;;;;3.90;3.53;;;;;;;20.92;99.31;100141.66;4966864;28;20230;-72
2021/07/14 06:44:01;;;;;;;3.80;3.30;;;;;;;20.93;98.17;100140.66;4964203;28;20202;-73
2021/07/14 06:46:28;;;;;;;3.57;3.10;;;;;;;21.01;98.17;100132.16;4962297;28;20695;-72
2021/07/14 06:48:55;;;;;;;5.10;3.57;;;;;;;21.01;99.79;100129.50;4957370;28;20208;-72
2021/07/14 06:51:23;;;;;;;5.20;3.60;;;;;;;21.07;98.37;100140.47;4966330;28;20206;-72
2021/07/14 06:53:49;;;;;;;6.40;3.20;;;;;;;21.05;96.37;100154.78;4958883;28;20214;-72
2021/07/14 06:56:16;;;;;;;4.63;3.10;;;;;;;21.17;95.15;100159.97;4967261;28;20228;-72
2021/07/14 06:58:43;;;;;;;4.10;3.00;;;;;;;21.28;95.84;100153.84;4964821;28;20213;-72
2021/07/14 07:01:10;;;;;;;3.93;3.03;;;;;;;21.37;93.30;100123.09;4969079;28;20206;-72
2021/07/14 07:03:37;;;;;;;4.00;3.47;;;;;;;21.40;94.68;100084.91;4963999;28;20214;-72
2021/07/14 07:06:05;;;;;;;3.47;3.17;;;;;;;21.62;94.29;100086.69;4961923;28;20237;-72
2021/07/14 07:08:33;;;;;;;3.40;2.90;;;;;;;21.63;89.11;100091.84;4962800;28;20213;-72
2021/07/14 07:11:01;;;;;;;3.40;3.10;;;;;;;21.69;92.44;100098.50;4960811;28;20412;-72
2021/07/14 07:13:27;;;;;;;6.20;3.27;;;;;;;21.53;90.72;100086.47;4960236;28;20932;-72
2021/07/14 07:15:54;;;;;;;4.40;3.22;;;;;;;21.62;93.37;100073.41;4958614;28;20229;-72
2021/07/14 07:18:21;;;;;;;5.72;3.53;;;;;;;21.66;88.98;100093.44;4966599;28;20217;-72
2021/07/14 07:20:48;;;;;;;4.13;3.67;;;;;;;21.78;90.63;100088.97;4961976;28;20214;-72
2021/07/14 07:23:15;;;;;;;4.20;3.63;;;;;;;22.10;92.36;100083.63;4966241;28;20759;-72
2021/07/14 07:25:43;;;;;;;3.63;3.33;;;;;;;22.25;88.09;100111.56;4955930;28;20207;-72
2021/07/14 07:28:13;;;;;;;3.78;3.30;;;;;;;22.27;90.40;100135.38;4963903;28;20691;-72
2021/07/14 07:30:40;;;;;;;6.93;3.63;;;;;;;22.33;89.11;100153.44;4957405;28;20214;-72
2021/07/14 07:33:06;;;;;;;4.25;3.53;;;;;;;22.37;89.72;100157.50;4965424;28;20214;-72
2021/07/14 07:35:32;;;;;;;4.03;3.63;;;;;;;22.41;89.22;100166.94;4962843;28;20242;-72
2021/07/14 07:37:59;;;;;;;5.40;3.42;;;;;;;22.38;89.28;100174.31;4960412;28;20209;-72
2021/07/14 07:40:28;;;;;;;3.55;3.25;;;;;;;22.37;87.49;100172.59;4963115;28;20213;-72
2021/07/14 07:42:56;;;;;;;4.75;4.00;;;;;;;22.36;88.95;100161.16;4957152;28;20215;-72
2021/07/14 07:45:22;;;;;;;4.00;3.60;;;;;;;22.41;89.95;100144.81;4963191;28;20640;-72
2021/07/14 07:47:49;;;;;;;3.58;3.28;;;;;;;22.36;88.44;100145.22;4954326;28;20233;-72
2021/07/14 07:50:15;;;;;;;4.85;3.70;;;;;;;22.36;90.43;100141.72;4963518;28;20209;-72
2021/07/14 07:52:41;;;;;;;5.22;4.15;;;;;;;22.36;89.30;100155.84;4962756;28;20240;-72
2021/07/14 07:55:10;;;;;;;5.03;3.70;;;;;;;22.43;89.17;100156.19;4964880;28;20206;-72
2021/07/14 07:57:37;;;;;;;4.45;3.72;;;;;;;22.50;88.11;100165.31;4961958;28;20719;-72
2021/07/14 08:00:08;;;;;;;4.07;3.63;;;;;;;22.74;90.19;100165.06;4963124;28;20203;-72
2021/07/14 08:02:38;;;;;;;4.15;3.70;;;;;;;22.75;87.93;100172.06;4962051;28;20277;-72
2021/07/14 08:05:06;;;;;;;3.63;3.33;;;;;;;22.58;86.60;100191.22;4957129;28;20210;-72
2021/07/14 08:07:32;;;;;;;5.15;3.53;;;;;;;22.57;86.25;100202.84;4964680;28;20602;-71
2021/07/14 08:09:59;;;;;;;3.92;3.60;;;;;;;22.47;86.52;100208.91;4955051;28;20203;-71
2021/07/14 08:12:25;;;;;;;4.10;3.70;;;;;;;22.41;86.72;100205.91;4959800;28;20233;-71
2021/07/14 08:14:51;;;;;;;4.68;3.50;;;;;;;22.23;86.53;100203.78;4958449;28;20698;-71
2021/07/14 08:17:19;;;;;;;4.70;3.95;;;;;;;22.12;88.41;100207.28;4959227;28;20218;-71
2021/07/14 08:19:46;;;;;;;4.93;3.50;;;;;;;22.16;90.15;100197.25;4952936;28;20210;-71
2021/07/14 08:22:12;;;;;;;4.32;3.55;;;;;;;22.23;90.09;100206.44;4961600;28;20848;-72
2021/07/14 08:24:39;;;;;;;4.72;3.50;;;;;;;22.17;89.94;100206.09;4959414;28;20207;-72
2021/07/14 08:27:05;;;;;;;4.25;3.85;;;;;;;22.04;89.27;100224.81;4962676;28;20305;-72
2021/07/14 08:29:32;;;;;;;4.07;3.42;;;;;;;21.87;90.43;100234.97;4959995;28;20206;-72
2021/07/14 08:31:58;;;;;;;6.25;3.70;;;;;;;21.82;91.64;100237.16;4958263;28;20682;-71
2021/07/14 08:34:26;;;;;;;3.80;3.50;;;;;;;21.84;91.97;100234.38;4961059;28;20202;-71
2021/07/14 08:36:52;;;;;;;3.67;3.38;;;;;;;21.77;91.98;100222.56;4957520;28;20221;-71
2021/07/14 08:39:19;;;;;;;4.25;3.30;;;;;;;21.80;91.13;100227.63;4959720;28;20214;-71
2021/07/14 08:41:46;;;;;;;4.53;3.45;;;;;;;21.72;91.90;100212.31;4957729;28;20206;-72
2021/07/14 08:44:13;;;;;;;4.00;3.38;;;;;;;21.71;93.33;100208.81;4961265;28;20741;-72
2021/07/14 08:46:40;;;;;;;3.70;3.10;;;;;;;21.47;90.32;100200.97;4954402;28;20218;-72
2021/07/14 08:49:06;;;;;;;3.20;2.90;;;;;;;21.45;90.62;100192.28;4962550;28;20214;-71
2021/07/14 08:51:35;;;;;;;3.70;3.17;;;;;;;21.46;90.77;100193.16;4960789;28;20209;-71
2021/07/14 08:54:03;;;;;;;3.00;2.80;;;;;;;21.40;90.18;100202.41;4963583;28;20225;-71
2021/07/14 08:56:30;;;;;;;4.20;3.55;;;;;;;21.43;91.05;100212.78;4964093;28;20234;-72
2021/07/14 08:58:57;;;;;;;3.92;3.03;;;;;;;21.45;90.99;100207.34;4959803;28;20208;-71
2021/07/14 09:01:23;;;;;;;3.20;2.90;;;;;;;21.41;92.10;100205.91;4956591;28;20579;-71
2021/07/14 09:03:50;;;;;;;3.40;3.10;;;;;;;21.43;91.86;100202.16;4962922;28;20204;-72
2021/07/14 09:06:16;;;;;;;3.72;3.22;;;;;;;21.48;92.94;100209.81;4957847;28;20229;-72
2021/07/14 09:08:44;;;;;;;3.78;2.90;;;;;;;21.48;91.48;100200.03;4954848;28;20707;-73
2021/07/14 09:11:11;;;;;;;4.72;3.30;;;;;;;21.50;91.49;100195.44;4960794;28;20573;-72
2021/07/14 09:13:40;;;;;;;4.20;3.03;;;;;;;21.60;92.18;100192.06;4958174;28;20225;-71
2021/07/14 09:16:07;;;;;;;3.33;3.03;;;;;;;21.55;91.55;100187.97;4960502;28;20233;-72
2021/07/14 09:18:34;;;;;;;4.25;3.45;;;;;;;21.65;92.71;100192.53;4961809;28;20690;-72
2021/07/14 09:21:02;;;;;;;3.45;3.15;;;;;;;21.71;92.33;100186.75;4963174;28;20212;-71
2021/07/14 09:23:30;;;;;;;3.25;2.95;;;;;;;21.72;92.29;100196.38;4954109;28;20212;-72
2021/07/14 09:26:00;;;;;;;3.58;3.28;;;;;;;21.63;89.96;100202.44;4963585;28;20325;-72
2021/07/14 09:28:29;;;;;;;4.07;2.83;;;;;;;21.67;89.88;100194.13;4958786;28;20220;-72
2021/07/14 09:30:58;;;;;;;3.53;3.22;;;;;;;21.68;90.12;100200.25;4958471;28;20387;-71
2021/07/14 09:33:25;;;;;;;4.10;3.33;;;;;;;21.63;90.14;100189.16;4960150;28;20222;-72
2021/07/14 09:35:53;;;;;;;3.08;2.78;;;;;;;21.66;91.44;100163.25;4954765;28;20250;-72
2021/07/14 09:38:22;;;;;;;3.90;3.45;;;;;;;21.91;91.75;100163.91;4952264;28;20210;-72
2021/07/14 09:40:51;;;;;;;4.25;3.50;;;;;;;22.24;90.47;100165.63;4972701;28;20198;-72
2021/07/14 09:43:20;;;;;;;5.13;3.88;;;;;;;22.54;91.46;100152.63;4961328;28;20719;-72
2021/07/14 09:45:49;;;;;;;4.07;3.67;;;;;;;22.88;87.92;100174.50;4962754;28;20228;-72
2021/07/14 09:48:18;;;;;;;4.88;4.20;;;;;;;23.14;87.86;100182.13;4959453;28;20210;-72
2021/07/14 09:50:48;;;;;;;4.65;4.07;;;;;;;23.21;86.03;100180.63;4958043;28;20207;-72
2021/07/14 09:53:19;;;;;;;5.25;4.07;;;;;;;23.34;85.81;100175.06;4964255;28;20291;-72
2021/07/14 09:55:46;;;;;;;5.72;4.32;;;;;;;23.13;83.76;100170.66;4953245;28;20240;-72
2021/07/14 09:58:15;;;;;;;5.20;4.70;;;;;;;23.35;86.26;100161.63;4963413;28;20198;-72
2021/07/14 10:00:48;;;;;;;6.15;4.78;;;;;;;23.42;84.45;100151.31;4960929;28;20749;-72
2021/07/14 10:03:20;;;;;;;7.28;5.05;;;;;;;23.39;84.21;100156.88;4958795;28;20202;-72
2021/07/14 10:05:47;;;;;;;5.93;5.22;;;;;;;23.66;84.86;100153.63;4959697;28;20293;-72
2021/07/14 10:08:21;;;;;;;5.82;4.75;;;;;;;23.78;82.91;100157.00;4962393;28;20198;-72
2021/07/14 10:10:51;;;;;;;5.47;4.63;;;;;;;23.84;83.35;100161.81;4958616;28;20659;-73
2021/07/14 10:13:21;;;;;;;6.10;5.03;;;;;;;23.74;80.08;100159.09;4961707;28;20214;-72
2021/07/14 10:16:01;;;;;;;5.95;5.30;;;;;;;23.94;81.75;100146.72;4956672;28;20205;-72
2021/07/14 10:18:28;;;;;;;5.72;5.13;;;;;;;24.32;79.45;100144.19;4960419;28;20190;-72
2021/07/14 10:20:55;;;;;;;5.75;5.07;;;;;;;24.45;77.77;100152.75;4960838;28;20557;-73
2021/07/14 10:23:23;;;;;;;6.30;5.18;;;;;;;24.63;77.34;100168.06;4957149;28;20209;-72
2021/07/14 10:25:50;;;;;;;5.75;5.20;;;;;;;24.61;75.22;100154.88;4957013;28;20214;-72
2021/07/14 10:28:19;;;;;;;5.60;5.03;;;;;;;24.68;74.90;100145.31;4954517;28;20292;-72
2021/07/14 10:30:50;;;;;;;5.60;5.00;;;;;;;24.63;74.79;100158.22;4962887;28;20242;-72
2021/07/14 10:33:18;;;;;;;5.85;4.88;;;;;;;24.68;74.27;100168.47;4955706;28;20645;-72
2021/07/14 10:35:47;;;;;;;7.05;5.03;;;;;;;24.68;73.63;100165.81;4957965;28;20565;-72
2021/07/14 10:38:15;;;;;;;5.63;5.00;;;;;;;24.79;74.50;100176.31;4948640;28;20304;-72
2021/07/14 10:40:43;;;;;;;5.15;4.50;;;;;;;25.01;72.68;100184.94;4955715;28;20206;-72
2021/07/14 10:43:10;;;;;;;5.85;4.38;;;;;;;25.13;72.51;100195.31;4959571;28;20198;-72
2021/07/14 10:45:37;;;;;;;6.03;4.70;;;;;;;25.17;69.92;100197.69;4956971;28;20914;-72
2021/07/14 10:48:06;;;;;;;4.70;4.10;;;;;;;25.16;69.09;100204.84;4959748;28;20308;-72
2021/07/14 10:50:32;;;;;;;4.63;4.10;;;;;;;25.35;70.81;100213.78;4959963;28;20202;-72
2021/07/14 10:53:00;;;;;;;4.75;4.25;;;;;;;25.24;69.86;100217.44;4960093;28;20217;-72
2021/07/14 10:55:28;;;;;;;4.57;4.18;;;;;;;25.18;69.92;100226.03;4962572;28;20213;-73
2021/07/14 10:57:55;;;;;;;4.47;4.07;;;;;;;25.09;68.83;100227.75;4957901;28;20229;-72
2021/07/14 11:00:22;;;;;;;4.53;4.13;;;;;;;25.23;70.04;100221.94;4956873;28;20214;-72
2021/07/14 11:02:50;;;;;;;4.63;3.97;;;;;;;25.41;69.19;100227.41;4962621;28;20285;-73
2021/07/14 11:05:33;;;;;;;4.10;3.60;;;;;;;25.35;68.96;100225.31;4960860;28;20206;-72
2021/07/14 11:08:00;;;;;;;4.07;3.67;;;;;;;25.25;68.42;100214.66;4962298;28;20199;-73
2021/07/14 11:10:33;;;;;;;4.88;4.03;;;;;;;25.02;66.01;100219.47;4958090;28;20210;-73
2021/07/14 11:13:21;;;;;;;4.47;4.07;;;;;;;24.87;66.90;100211.09;4958259;28;20222;-72
2021/07/14 11:15:47;;;;;;;4.53;4.13;;;;;;;24.94;69.25;100198.00;4961151;28;20742;-72
2021/07/14 11:18:37;;;;;;;5.35;4.10;;;;;;;25.12;69.57;100180.28;4965030;28;20928;-73
2021/07/14 11:21:05;;;;;;;4.88;4.38;;;;;;;25.28;69.25;100165.53;4966023;28;20306;-73
2021/07/14 11:23:32;;;;;;;3.88;3.58;;;;;;;25.42;67.34;100175.72;4959172;28;20198;-73
2021/07/14 11:26:00;;;;;;;5.00;4.15;;;;;;;25.63;68.03;100175.47;4956565;28;20233;-72
2021/07/14 11:28:28;;;;;;;4.20;3.72;;;;;;;25.70;66.09;100179.25;4961112;28;20648;-73
2021/07/14 11:30:56;;;;;;;4.25;3.83;;;;;;;25.75;66.53;100189.47;4957880;28;20297;-73